Cherry Point Marine Corps Air Station, NC

1:59 PM EST on December 25, 2014 (GMT -0500)
Cherry Point Marine Corps Air Station | Change Station
CLOSE
Current Station
Airport
Location: Cherry Point,
Elevation: 26 ft
Nearby Weather Stations

Elev 26 ft 34.90 °N, 76.88 °W | Updated 5 minutes ago

Clear
Clear
60 °F
Feels Like 60 °F
N
13
Wind Variable Wind from NW

Today
High -- | Low -- °F
--% Chance of Precip.
Yesterday
High -- | Low -- °F
Precip. -- in
7:13 AM 5:02 PM
Waxing Crescent, 18% visible
Pressure 30.04 in
Visibility 10.0 miles
Clouds Clear
Dew Point 40 °F
Humidity 47%
Rainfall 0.04 in
Snow Depth Not available.
UV 2 out of 12
Pollen 1.20 out of 12
Air Quality Not available.
Flu Activity Not available.
METAR KNKT 251854Z 31011KT 10SM CLR 16/04 A3004 RMK AO2 SLP170 T01560044 $

More Conditions Fewer Conditions

Pressure 30.04 in
Visibility 10.0 miles
Clouds Clear
Dew Point 40 °F
Humidity 47%
Rainfall 0.04 in
Snow Depth Not available.
UV 2 out of 12
Pollen 1.20 out of 12
Air Quality Not available.
Flu Activity Not available.
METAR KNKT 251854Z 31011KT 10SM CLR 16/04 A3004 RMK AO2 SLP170 T01560044 $

More Conditions Fewer Conditions

10-Day Weather Forecast

Almanac

Astronomy

Dec. 25, 2014 Rise Set
Actual Time
Civil Twilight
Nautical Twilight
Astronomical Twilight
Moon
Length of Visible Light
Length of Day
Tomorrow will be .
, % of the Moon is Illuminated

Today's Extremes

State Highs State Lows

Community

WunderPhotos

Upload Photos

1,780,358 photos uploaded!

WunderBlogs® & News

Nearby

Air Quality

  Air Quality AQ Index Pollutant
Not available.

Snow Depth

Station Depth Elevation

Earthquake Activity

City Distance Mag. Time & Date
Minimum magnitude displayed is 2.5.

Coastal Water Temperatures

Place Temperature

Nearby Weather Stations